createdAt,value
2022-08-19T00:02:39.830Z,98106.20
2022-08-19T00:13:20.034Z,98105.84
2022-08-19T00:23:49.144Z,98101.94
2022-08-19T00:34:18.979Z,98093.55
2022-08-19T00:44:48.591Z,98082.09
2022-08-19T00:55:21.548Z,98074.14
2022-08-19T01:05:52.767Z,98066.05
2022-08-19T01:16:25.085Z,98059.46
2022-08-19T01:26:54.426Z,98059.13
2022-08-19T01:37:27.224Z,98057.27
2022-08-19T01:48:01.784Z,98054.91
2022-08-19T01:58:34.951Z,98051.77
2022-08-19T02:09:03.810Z,98047.52
2022-08-19T02:19:33.847Z,98056.81
2022-08-19T02:30:03.123Z,98044.13
2022-08-19T02:40:35.237Z,98037.20
2022-08-19T02:51:04.211Z,98033.55
2022-08-19T03:01:34.838Z,98024.52
2022-08-19T03:12:05.055Z,98032.17
2022-08-19T03:22:34.239Z,98027.65
2022-08-19T03:33:03.220Z,98024.65
2022-08-19T03:43:34.790Z,98045.41
2022-08-19T03:54:06.342Z,98045.95
2022-08-19T04:04:35.925Z,98064.34
2022-08-19T04:15:06.088Z,98069.81
2022-08-19T04:25:40.119Z,98084.64
2022-08-19T04:36:11.319Z,98097.14
2022-08-19T04:46:51.176Z,98105.32
2022-08-19T04:57:20.745Z,98102.48
2022-08-19T05:07:49.783Z,98096.31
2022-08-19T05:18:35.932Z,98096.78
2022-08-19T05:29:03.090Z,98098.96
2022-08-19T05:39:34.774Z,98110.67
2022-08-19T05:50:05.028Z,98110.95
2022-08-19T06:00:34.291Z,98110.15
2022-08-19T06:11:17.097Z,98116.19
2022-08-19T06:21:47.968Z,98123.39
2022-08-19T06:32:20.024Z,98133.24
2022-08-19T06:42:54.089Z,98141.55
2022-08-19T06:53:24.259Z,98153.02
2022-08-19T07:03:53.237Z,98158.90
2022-08-19T07:14:25.882Z,98165.17
2022-08-19T07:24:55.041Z,98183.61
2022-08-19T07:35:24.992Z,98202.11
2022-08-19T07:45:54.235Z,98208.14
2022-08-19T07:56:24.807Z,98208.19
2022-08-19T08:07:11.159Z,98207.60
2022-08-19T08:17:48.636Z,98214.13
2022-08-19T08:28:19.272Z,98202.66
2022-08-19T08:38:49.499Z,98194.99
2022-08-19T08:49:29.647Z,98199.81
2022-08-19T08:59:59.848Z,98184.77
2022-08-19T09:10:35.449Z,98176.36
2022-08-19T09:21:13.658Z,98176.77
2022-08-19T09:31:42.919Z,98182.64
2022-08-19T09:42:16.396Z,98187.30
2022-08-19T09:52:54.193Z,98194.95
2022-08-19T10:03:29.858Z,98193.79
2022-08-19T10:13:59.327Z,98197.12
2022-08-19T10:24:29.286Z,98189.97
2022-08-19T10:34:58.992Z,98186.42
2022-08-19T10:45:28.541Z,98168.75
2022-08-19T10:56:15.117Z,98155.11
2022-08-19T11:06:46.743Z,98148.98
2022-08-19T11:17:16.874Z,98157.10
2022-08-19T11:27:47.579Z,98147.95
2022-08-19T11:38:16.571Z,98137.85
2022-08-19T11:48:46.029Z,98143.23
2022-08-19T11:59:16.369Z,98138.73
2022-08-19T12:09:45.955Z,98136.19
2022-08-19T12:20:18.570Z,98129.05
2022-08-19T12:30:47.671Z,98120.12
2022-08-19T12:41:19.693Z,98106.85
2022-08-19T12:51:48.622Z,98098.56
2022-08-19T13:02:17.556Z,98098.08
2022-08-19T13:12:47.233Z,98089.45
2022-08-19T13:23:16.045Z,98097.30
2022-08-19T13:33:46.624Z,98093.40
2022-08-19T13:44:15.543Z,98087.02
2022-08-19T13:54:45.161Z,98073.31
2022-08-19T14:05:16.257Z,98070.98
2022-08-19T14:15:45.582Z,98070.95
2022-08-19T14:26:17.587Z,98070.00
2022-08-19T14:36:46.460Z,98058.23
2022-08-19T14:47:18.722Z,98042.80
2022-08-19T14:57:49.058Z,98025.92
2022-08-19T15:08:17.914Z,98005.21
2022-08-19T15:18:48.492Z,98013.80
2022-08-19T15:29:17.716Z,97995.14
2022-08-19T15:39:47.387Z,97986.44
2022-08-19T15:50:19.413Z,97973.77
2022-08-19T16:01:05.717Z,97988.09
2022-08-19T16:11:45.588Z,98017.19
2022-08-19T16:22:15.155Z,98027.13
2022-08-19T16:32:47.731Z,98016.55
2022-08-19T16:43:16.770Z,98016.48
2022-08-19T16:53:47.141Z,97997.84
2022-08-19T17:04:16.132Z,97995.30
2022-08-19T17:14:46.425Z,98060.20
2022-08-19T17:25:16.248Z,98182.40
2022-08-19T17:35:46.202Z,98190.95
2022-08-19T17:56:21.996Z,98284.60
2022-08-19T18:06:53.723Z,98261.04
2022-08-19T18:17:26.320Z,98361.70
2022-08-19T18:27:57.488Z,98376.38
2022-08-19T18:38:43.492Z,98339.08
2022-08-19T18:49:13.163Z,98353.11
2022-08-19T18:59:43.543Z,98399.77
2022-08-19T19:10:12.730Z,98319.06
2022-08-19T19:20:42.068Z,98319.65
2022-08-19T19:31:13.710Z,98325.38
2022-08-19T19:41:42.667Z,98338.94
2022-08-19T19:52:13.941Z,98334.38
2022-08-19T20:02:49.148Z,98341.25
2022-08-19T20:13:17.326Z,98317.00
2022-08-19T20:24:05.779Z,98298.79
2022-08-19T20:34:35.458Z,98286.86
2022-08-19T20:45:05.778Z,98291.86
2022-08-19T20:55:38.862Z,98299.83
2022-08-19T21:06:08.165Z,98310.77
2022-08-19T21:16:37.153Z,98335.27
2022-08-19T21:27:06.638Z,98378.12
2022-08-19T21:37:35.929Z,98368.70
2022-08-19T21:48:05.373Z,98365.54
2022-08-19T21:58:34.981Z,98338.78
2022-08-19T22:09:03.816Z,98312.91
2022-08-19T22:19:33.633Z,98298.21
2022-08-19T22:30:04.023Z,98272.02
2022-08-19T22:40:34.743Z,98268.60
2022-08-19T22:51:21.143Z,98246.80
2022-08-19T23:01:48.224Z,98238.13
2022-08-19T23:12:17.724Z,98268.48
2022-08-19T23:22:48.895Z,98295.05
2022-08-19T23:33:25.077Z,98291.59
2022-08-19T23:43:54.799Z,98260.74
2022-08-19T23:54:34.358Z,98242.92
